CYBL

Campbell River Airport

Campbell River, British Columbia, Canada

CYBL 261538Z 26003KT 5SM BR BKN007 BKN025 BKN080 14/14 A3020 RMK SF5SC1AC1 SLP231

Observed Flight Rules
Sep-26 @ 15:38 UTC (37 minutes ago)
 
Instrument Flight Rules
Wind Visibility Clouds Conditions
260° at 3 knots 5 miles
  • Broken at 700' AGL
  • Broken at 2,500' AGL
  • Broken at 8,000' AGL
  • Mist
Temperatures Readings
Current 14°C / 57°F
Dewpoint 14°C / 57°F
Humidity 100%
Altimeter 30.2" Hg
Pressure 1023.1 hPa
Elevation 106
Observed Flight Rules
Sep-26 @ 15:38 UTC
(37 minutes ago)
 
IFR
Wind Visibility
260° at 3 knots 5 miles
Clouds Conditions
  • Broken at 700' AGL
  • Broken at 2,500' AGL
  • Broken at 8,000' AGL
  • Mist
Temperature Dewpoint
14°C / 57°F 14°C / 57°F
Humidity Altimeter Pressure
100% 30.2" Hg 1023.1 hPa